sensor_id;sensor_type;location;lat;lon;timestamp;temperature;humidity
75363;DHT22;64122;51.988;5.892;2023-11-19T00:01:56;14.62;79.66
75363;DHT22;64122;51.988;5.892;2023-11-19T00:04:25;14.65;79.54
75363;DHT22;64122;51.988;5.892;2023-11-19T00:06:56;14.65;79.51
75363;DHT22;64122;51.988;5.892;2023-11-19T00:09:30;14.67;79.49
75363;DHT22;64122;51.988;5.892;2023-11-19T00:12:04;14.67;79.47
75363;DHT22;64122;51.988;5.892;2023-11-19T00:14:35;14.68;79.42
75363;DHT22;64122;51.988;5.892;2023-11-19T00:17:05;14.71;79.49
75363;DHT22;64122;51.988;5.892;2023-11-19T00:19:34;14.73;79.37
75363;DHT22;64122;51.988;5.892;2023-11-19T00:22:03;14.74;79.47
75363;DHT22;64122;51.988;5.892;2023-11-19T00:24:32;14.75;79.33
75363;DHT22;64122;51.988;5.892;2023-11-19T00:27:01;14.77;79.31
75363;DHT22;64122;51.988;5.892;2023-11-19T00:29:31;14.80;79.27
75363;DHT22;64122;51.988;5.892;2023-11-19T00:32:03;14.79;79.20
75363;DHT22;64122;51.988;5.892;2023-11-19T00:34:33;14.80;79.29
75363;DHT22;64122;51.988;5.892;2023-11-19T00:37:00;14.83;79.18
75363;DHT22;64122;51.988;5.892;2023-11-19T00:39:30;14.82;79.20
75363;DHT22;64122;51.988;5.892;2023-11-19T00:41:59;14.83;79.13
75363;DHT22;64122;51.988;5.892;2023-11-19T00:44:28;14.83;79.15
75363;DHT22;64122;51.988;5.892;2023-11-19T00:46:57;14.85;79.08
75363;DHT22;64122;51.988;5.892;2023-11-19T00:49:29;14.85;79.04
75363;DHT22;64122;51.988;5.892;2023-11-19T00:51:58;14.85;79.04
75363;DHT22;64122;51.988;5.892;2023-11-19T00:54:28;14.86;79.05
75363;DHT22;64122;51.988;5.892;2023-11-19T00:56:57;14.87;78.99
75363;DHT22;64122;51.988;5.892;2023-11-19T00:59:27;14.89;78.82
75363;DHT22;64122;51.988;5.892;2023-11-19T01:01:57;14.92;78.82
75363;DHT22;64122;51.988;5.892;2023-11-19T01:04:33;14.92;78.78
75363;DHT22;64122;51.988;5.892;2023-11-19T01:07:03;14.94;78.63
75363;DHT22;64122;51.988;5.892;2023-11-19T01:09:33;14.94;78.59
75363;DHT22;64122;51.988;5.892;2023-11-19T01:12:02;14.95;78.53
75363;DHT22;64122;51.988;5.892;2023-11-19T01:14:31;14.93;78.56
75363;DHT22;64122;51.988;5.892;2023-11-19T01:17:01;14.93;78.47
75363;DHT22;64122;51.988;5.892;2023-11-19T01:19:33;14.94;78.37
75363;DHT22;64122;51.988;5.892;2023-11-19T01:22:03;14.93;78.42
75363;DHT22;64122;51.988;5.892;2023-11-19T01:24:32;14.94;78.37
75363;DHT22;64122;51.988;5.892;2023-11-19T01:27:01;14.94;78.34
75363;DHT22;64122;51.988;5.892;2023-11-19T01:29:30;14.95;78.24
75363;DHT22;64122;51.988;5.892;2023-11-19T01:32:00;14.98;78.13
75363;DHT22;64122;51.988;5.892;2023-11-19T01:34:29;14.98;78.11
75363;DHT22;64122;51.988;5.892;2023-11-19T01:37:01;14.96;78.01
75363;DHT22;64122;51.988;5.892;2023-11-19T01:39:30;14.98;78.04
75363;DHT22;64122;51.988;5.892;2023-11-19T01:41:59;14.97;77.92
75363;DHT22;64122;51.988;5.892;2023-11-19T01:44:28;14.97;77.90
75363;DHT22;64122;51.988;5.892;2023-11-19T01:46:58;14.98;77.81
75363;DHT22;64122;51.988;5.892;2023-11-19T01:49:27;14.97;77.76
75363;DHT22;64122;51.988;5.892;2023-11-19T01:51:57;14.96;77.66
75363;DHT22;64122;51.988;5.892;2023-11-19T01:54:30;14.96;77.63
75363;DHT22;64122;51.988;5.892;2023-11-19T01:56:59;14.95;77.65
75363;DHT22;64122;51.988;5.892;2023-11-19T01:59:28;14.96;77.60
75363;DHT22;64122;51.988;5.892;2023-11-19T02:01:58;14.96;77.50
75363;DHT22;64122;51.988;5.892;2023-11-19T02:04:27;14.96;77.49
75363;DHT22;64122;51.988;5.892;2023-11-19T02:06:58;14.98;77.42
75363;DHT22;64122;51.988;5.892;2023-11-19T02:09:30;14.96;77.44
75363;DHT22;64122;51.988;5.892;2023-11-19T02:11:59;14.96;77.36
75363;DHT22;64122;51.988;5.892;2023-11-19T02:14:29;14.96;77.27
75363;DHT22;64122;51.988;5.892;2023-11-19T02:16:58;14.95;77.23
75363;DHT22;64122;51.988;5.892;2023-11-19T02:19:28;14.94;77.20
75363;DHT22;64122;51.988;5.892;2023-11-19T02:21:57;14.94;77.15
75363;DHT22;64122;51.988;5.892;2023-11-19T02:24:31;14.94;76.97
75363;DHT22;64122;51.988;5.892;2023-11-19T02:27:06;14.91;76.95
75363;DHT22;64122;51.988;5.892;2023-11-19T02:29:39;14.92;76.87
75363;DHT22;64122;51.988;5.892;2023-11-19T02:32:08;14.89;76.86
75363;DHT22;64122;51.988;5.892;2023-11-19T02:34:39;14.91;76.79
75363;DHT22;64122;51.988;5.892;2023-11-19T02:37:08;14.91;76.79
75363;DHT22;64122;51.988;5.892;2023-11-19T02:39:38;14.88;76.73
75363;DHT22;64122;51.988;5.892;2023-11-19T02:42:08;14.86;76.69
75363;DHT22;64122;51.988;5.892;2023-11-19T02:44:43;14.82;76.61
75363;DHT22;64122;51.988;5.892;2023-11-19T02:47:14;14.79;76.54
75363;DHT22;64122;51.988;5.892;2023-11-19T02:49:47;14.77;76.53
75363;DHT22;64122;51.988;5.892;2023-11-19T02:52:16;14.77;76.47
75363;DHT22;64122;51.988;5.892;2023-11-19T02:54:45;14.75;76.40
75363;DHT22;64122;51.988;5.892;2023-11-19T02:57:15;14.74;76.35
75363;DHT22;64122;51.988;5.892;2023-11-19T02:59:47;14.72;76.25
75363;DHT22;64122;51.988;5.892;2023-11-19T03:02:17;14.71;76.18
75363;DHT22;64122;51.988;5.892;2023-11-19T03:04:47;14.69;76.07
75363;DHT22;64122;51.988;5.892;2023-11-19T03:07:16;14.66;76.02
75363;DHT22;64122;51.988;5.892;2023-11-19T03:09:45;14.63;75.93
75363;DHT22;64122;51.988;5.892;2023-11-19T03:12:15;14.59;75.99
75363;DHT22;64122;51.988;5.892;2023-11-19T03:14:47;14.55;75.86
75363;DHT22;64122;51.988;5.892;2023-11-19T03:17:16;14.52;75.91
75363;DHT22;64122;51.988;5.892;2023-11-19T03:19:46;14.48;75.91
75363;DHT22;64122;51.988;5.892;2023-11-19T03:22:15;14.48;75.88
75363;DHT22;64122;51.988;5.892;2023-11-19T03:24:44;14.45;75.81
75363;DHT22;64122;51.988;5.892;2023-11-19T03:27:13;14.44;75.78
75363;DHT22;64122;51.988;5.892;2023-11-19T03:29:43;14.42;75.79
75363;DHT22;64122;51.988;5.892;2023-11-19T03:32:15;14.39;75.79
75363;DHT22;64122;51.988;5.892;2023-11-19T03:34:44;14.34;75.83
75363;DHT22;64122;51.988;5.892;2023-11-19T03:37:13;14.29;75.89
75363;DHT22;64122;51.988;5.892;2023-11-19T03:39:43;14.23;75.89
75363;DHT22;64122;51.988;5.892;2023-11-19T03:42:12;14.15;75.94
75363;DHT22;64122;51.988;5.892;2023-11-19T03:44:42;14.10;76.15
75363;DHT22;64122;51.988;5.892;2023-11-19T03:47:11;14.00;76.25
75363;DHT22;64122;51.988;5.892;2023-11-19T03:49:47;13.91;76.38
75363;DHT22;64122;51.988;5.892;2023-11-19T03:52:17;13.82;76.59
75363;DHT22;64122;51.988;5.892;2023-11-19T03:54:46;13.71;76.79
75363;DHT22;64122;51.988;5.892;2023-11-19T03:57:15;13.61;77.02
75363;DHT22;64122;51.988;5.892;2023-11-19T03:59:45;13.52;77.25
75363;DHT22;64122;51.988;5.892;2023-11-19T04:02:14;13.43;77.45
75363;DHT22;64122;51.988;5.892;2023-11-19T04:04:46;13.33;77.55
75363;DHT22;64122;51.988;5.892;2023-11-19T04:07:15;13.29;77.69
75363;DHT22;64122;51.988;5.892;2023-11-19T04:09:44;13.21;77.81
75363;DHT22;64122;51.988;5.892;2023-11-19T04:12:14;13.14;77.93
75363;DHT22;64122;51.988;5.892;2023-11-19T04:14:43;13.10;78.01
75363;DHT22;64122;51.988;5.892;2023-11-19T04:17:12;13.05;78.07
75363;DHT22;64122;51.988;5.892;2023-11-19T04:19:42;13.04;78.04
75363;DHT22;64122;51.988;5.892;2023-11-19T04:22:13;13.01;77.99
75363;DHT22;64122;51.988;5.892;2023-11-19T04:24:43;12.96;77.99
75363;DHT22;64122;51.988;5.892;2023-11-19T04:27:12;12.93;77.97
75363;DHT22;64122;51.988;5.892;2023-11-19T04:29:42;12.90;77.97
75363;DHT22;64122;51.988;5.892;2023-11-19T04:32:12;12.86;77.98
75363;DHT22;64122;51.988;5.892;2023-11-19T04:34:41;12.81;77.92
75363;DHT22;64122;51.988;5.892;2023-11-19T04:37:12;12.79;77.87
75363;DHT22;64122;51.988;5.892;2023-11-19T04:39:44;12.77;77.85
75363;DHT22;64122;51.988;5.892;2023-11-19T04:42:13;12.74;77.86
75363;DHT22;64122;51.988;5.892;2023-11-19T04:44:43;12.72;77.78
75363;DHT22;64122;51.988;5.892;2023-11-19T04:47:12;12.69;77.72
75363;DHT22;64122;51.988;5.892;2023-11-19T04:49:41;12.66;77.72
75363;DHT22;64122;51.988;5.892;2023-11-19T04:52:14;12.62;77.72
75363;DHT22;64122;51.988;5.892;2023-11-19T04:54:43;12.63;77.70
75363;DHT22;64122;51.988;5.892;2023-11-19T04:57:14;12.60;77.71
75363;DHT22;64122;51.988;5.892;2023-11-19T04:59:43;12.58;77.65
75363;DHT22;64122;51.988;5.892;2023-11-19T05:02:12;12.57;77.69
75363;DHT22;64122;51.988;5.892;2023-11-19T05:04:42;12.53;77.64
75363;DHT22;64122;51.988;5.892;2023-11-19T05:07:15;12.51;77.63
75363;DHT22;64122;51.988;5.892;2023-11-19T05:09:44;12.51;77.65
75363;DHT22;64122;51.988;5.892;2023-11-19T05:12:14;12.52;77.66
75363;DHT22;64122;51.988;5.892;2023-11-19T05:14:43;12.56;77.58
75363;DHT22;64122;51.988;5.892;2023-11-19T05:17:16;12.57;77.46
75363;DHT22;64122;51.988;5.892;2023-11-19T05:19:46;12.57;77.48
75363;DHT22;64122;51.988;5.892;2023-11-19T05:22:18;12.59;77.40
75363;DHT22;64122;51.988;5.892;2023-11-19T05:24:47;12.63;77.43
75363;DHT22;64122;51.988;5.892;2023-11-19T05:27:17;12.69;77.36
75363;DHT22;64122;51.988;5.892;2023-11-19T05:29:46;12.77;77.18
75363;DHT22;64122;51.988;5.892;2023-11-19T05:32:15;12.87;76.89
75363;DHT22;64122;51.988;5.892;2023-11-19T05:34:44;12.92;76.60
75363;DHT22;64122;51.988;5.892;2023-11-19T05:37:13;12.99;76.50
75363;DHT22;64122;51.988;5.892;2023-11-19T05:39:45;13.03;76.34
75363;DHT22;64122;51.988;5.892;2023-11-19T05:42:15;13.04;76.18
75363;DHT22;64122;51.988;5.892;2023-11-19T05:44:44;13.04;76.12
75363;DHT22;64122;51.988;5.892;2023-11-19T05:47:13;13.04;76.01
75363;DHT22;64122;51.988;5.892;2023-11-19T05:49:42;13.03;75.99
75363;DHT22;64122;51.988;5.892;2023-11-19T05:52:12;13.04;75.95
75363;DHT22;64122;51.988;5.892;2023-11-19T05:54:41;13.06;75.77
75363;DHT22;64122;51.988;5.892;2023-11-19T05:57:12;13.06;75.69
75363;DHT22;64122;51.988;5.892;2023-11-19T05:59:46;13.05;75.63
75363;DHT22;64122;51.988;5.892;2023-11-19T06:02:15;13.04;75.69
75363;DHT22;64122;51.988;5.892;2023-11-19T06:04:45;13.07;75.60
75363;DHT22;64122;51.988;5.892;2023-11-19T06:07:15;13.11;75.44
75363;DHT22;64122;51.988;5.892;2023-11-19T06:09:45;13.15;75.28
75363;DHT22;64122;51.988;5.892;2023-11-19T06:12:17;13.16;75.09
75363;DHT22;64122;51.988;5.892;2023-11-19T06:14:46;13.15;74.98
75363;DHT22;64122;51.988;5.892;2023-11-19T06:17:15;13.12;75.07
75363;DHT22;64122;51.988;5.892;2023-11-19T06:19:44;13.09;75.23
75363;DHT22;64122;51.988;5.892;2023-11-19T06:22:13;13.02;75.35
75363;DHT22;64122;51.988;5.892;2023-11-19T06:24:43;12.99;75.41
75363;DHT22;64122;51.988;5.892;2023-11-19T06:27:12;13.00;75.38
75363;DHT22;64122;51.988;5.892;2023-11-19T06:29:44;12.97;75.32
75363;DHT22;64122;51.988;5.892;2023-11-19T06:32:13;12.96;75.45
75363;DHT22;64122;51.988;5.892;2023-11-19T06:34:43;12.93;75.50
75363;DHT22;64122;51.988;5.892;2023-11-19T06:37:12;12.91;75.58
75363;DHT22;64122;51.988;5.892;2023-11-19T06:39:41;12.88;75.55
75363;DHT22;64122;51.988;5.892;2023-11-19T06:42:10;12.90;75.51
75363;DHT22;64122;51.988;5.892;2023-11-19T06:44:39;12.90;75.53
75363;DHT22;64122;51.988;5.892;2023-11-19T06:47:11;12.92;75.46
75363;DHT22;64122;51.988;5.892;2023-11-19T06:49:43;12.92;75.43
75363;DHT22;64122;51.988;5.892;2023-11-19T06:52:13;12.95;75.38
75363;DHT22;64122;51.988;5.892;2023-11-19T06:54:42;12.99;75.30
75363;DHT22;64122;51.988;5.892;2023-11-19T06:57:11;13.00;75.19
75363;DHT22;64122;51.988;5.892;2023-11-19T06:59:40;13.00;75.12
75363;DHT22;64122;51.988;5.892;2023-11-19T07:02:12;12.99;75.08
75363;DHT22;64122;51.988;5.892;2023-11-19T07:04:41;13.00;75.10
75363;DHT22;64122;51.988;5.892;2023-11-19T07:07:11;12.99;75.11
75363;DHT22;64122;51.988;5.892;2023-11-19T07:09:41;13.00;75.09
75363;DHT22;64122;51.988;5.892;2023-11-19T07:12:10;13.02;75.12
75363;DHT22;64122;51.988;5.892;2023-11-19T07:14:40;13.04;75.01
75363;DHT22;64122;51.988;5.892;2023-11-19T07:17:12;13.08;74.89
75363;DHT22;64122;51.988;5.892;2023-11-19T07:19:42;13.11;74.89
75363;DHT22;64122;51.988;5.892;2023-11-19T07:22:11;13.16;74.80
75363;DHT22;64122;51.988;5.892;2023-11-19T07:24:41;13.17;74.67
75363;DHT22;64122;51.988;5.892;2023-11-19T07:27:10;13.18;74.64
75363;DHT22;64122;51.988;5.892;2023-11-19T07:29:39;13.16;74.64
75363;DHT22;64122;51.988;5.892;2023-11-19T07:32:09;13.18;74.68
75363;DHT22;64122;51.988;5.892;2023-11-19T07:34:42;13.17;74.54
75363;DHT22;64122;51.988;5.892;2023-11-19T07:37:11;13.17;74.58
75363;DHT22;64122;51.988;5.892;2023-11-19T07:39:40;13.19;74.51
75363;DHT22;64122;51.988;5.892;2023-11-19T07:42:10;13.24;74.33
75363;DHT22;64122;51.988;5.892;2023-11-19T07:44:39;13.24;74.22
75363;DHT22;64122;51.988;5.892;2023-11-19T07:47:08;13.27;74.09
75363;DHT22;64122;51.988;5.892;2023-11-19T07:49:38;13.30;73.87
75363;DHT22;64122;51.988;5.892;2023-11-19T07:52:13;13.36;73.77
75363;DHT22;64122;51.988;5.892;2023-11-19T07:54:42;13.41;73.58
75363;DHT22;64122;51.988;5.892;2023-11-19T07:57:11;13.46;73.48
75363;DHT22;64122;51.988;5.892;2023-11-19T07:59:40;13.47;73.39
75363;DHT22;64122;51.988;5.892;2023-11-19T08:02:09;13.52;73.13
75363;DHT22;64122;51.988;5.892;2023-11-19T08:04:38;13.61;73.12
75363;DHT22;64122;51.988;5.892;2023-11-19T08:07:14;13.80;72.60
75363;DHT22;64122;51.988;5.892;2023-11-19T08:09:43;14.05;71.95
75363;DHT22;64122;51.988;5.892;2023-11-19T08:12:13;14.21;71.18
75363;DHT22;64122;51.988;5.892;2023-11-19T08:14:43;14.32;71.06
75363;DHT22;64122;51.988;5.892;2023-11-19T08:17:12;14.41;70.91
75363;DHT22;64122;51.988;5.892;2023-11-19T08:19:42;14.39;70.66
75363;DHT22;64122;51.988;5.892;2023-11-19T08:22:14;14.29;70.87
75363;DHT22;64122;51.988;5.892;2023-11-19T08:24:43;14.25;71.10
75363;DHT22;64122;51.988;5.892;2023-11-19T08:27:12;14.24;70.90
75363;DHT22;64122;51.988;5.892;2023-11-19T08:29:42;14.24;70.99
75363;DHT22;64122;51.988;5.892;2023-11-19T08:32:11;14.20;70.77
75363;DHT22;64122;51.988;5.892;2023-11-19T08:34:41;14.25;70.89
75363;DHT22;64122;51.988;5.892;2023-11-19T08:37:10;14.28;70.71
75363;DHT22;64122;51.988;5.892;2023-11-19T08:39:42;14.25;70.87
75363;DHT22;64122;51.988;5.892;2023-11-19T08:42:12;14.23;70.62
75363;DHT22;64122;51.988;5.892;2023-11-19T08:44:42;14.24;70.64
75363;DHT22;64122;51.988;5.892;2023-11-19T08:47:13;14.33;70.35
75363;DHT22;64122;51.988;5.892;2023-11-19T08:49:44;14.43;69.87
75363;DHT22;64122;51.988;5.892;2023-11-19T08:52:13;14.70;69.15
75363;DHT22;64122;51.988;5.892;2023-11-19T08:54:46;14.59;69.26
75363;DHT22;64122;51.988;5.892;2023-11-19T08:57:15;14.50;69.52
75363;DHT22;64122;51.988;5.892;2023-11-19T08:59:45;14.47;69.56
75363;DHT22;64122;51.988;5.892;2023-11-19T09:02:14;14.54;69.38
75363;DHT22;64122;51.988;5.892;2023-11-19T09:04:44;14.56;69.45
75363;DHT22;64122;51.988;5.892;2023-11-19T09:07:14;14.56;69.31
75363;DHT22;64122;51.988;5.892;2023-11-19T09:09:45;14.54;69.40
75363;DHT22;64122;51.988;5.892;2023-11-19T09:12:14;14.54;69.45
75363;DHT22;64122;51.988;5.892;2023-11-19T09:14:44;14.59;69.25
75363;DHT22;64122;51.988;5.892;2023-11-19T09:17:13;14.57;69.06
75363;DHT22;64122;51.988;5.892;2023-11-19T09:19:43;14.60;69.05
75363;DHT22;64122;51.988;5.892;2023-11-19T09:22:12;14.58;69.08
75363;DHT22;64122;51.988;5.892;2023-11-19T09:24:42;14.53;68.76
75363;DHT22;64122;51.988;5.892;2023-11-19T09:27:14;14.53;68.91
75363;DHT22;64122;51.988;5.892;2023-11-19T09:29:46;14.57;68.96
75363;DHT22;64122;51.988;5.892;2023-11-19T09:32:21;14.60;69.04
75363;DHT22;64122;51.988;5.892;2023-11-19T09:34:50;14.60;68.89
75363;DHT22;64122;51.988;5.892;2023-11-19T09:37:20;14.63;68.80
75363;DHT22;64122;51.988;5.892;2023-11-19T09:39:49;14.67;68.39
75363;DHT22;64122;51.988;5.892;2023-11-19T09:42:24;14.83;68.15
75363;DHT22;64122;51.988;5.892;2023-11-19T09:44:53;14.91;67.75
75363;DHT22;64122;51.988;5.892;2023-11-19T09:47:25;14.83;67.81
75363;DHT22;64122;51.988;5.892;2023-11-19T09:49:56;14.78;68.04
75363;DHT22;64122;51.988;5.892;2023-11-19T09:52:25;14.74;68.33
75363;DHT22;64122;51.988;5.892;2023-11-19T09:54:54;14.71;68.53
75363;DHT22;64122;51.988;5.892;2023-11-19T09:57:26;14.75;68.46
75363;DHT22;64122;51.988;5.892;2023-11-19T09:59:57;14.98;67.91
75363;DHT22;64122;51.988;5.892;2023-11-19T10:02:27;15.23;67.42
75363;DHT22;64122;51.988;5.892;2023-11-19T10:04:58;15.29;66.91
75363;DHT22;64122;51.988;5.892;2023-11-19T10:07:28;15.25;66.84
75363;DHT22;64122;51.988;5.892;2023-11-19T10:09:59;15.18;67.00
75363;DHT22;64122;51.988;5.892;2023-11-19T10:12:33;15.15;67.15
75363;DHT22;64122;51.988;5.892;2023-11-19T10:15:02;15.15;67.33
75363;DHT22;64122;51.988;5.892;2023-11-19T10:17:32;15.09;66.96
75363;DHT22;64122;51.988;5.892;2023-11-19T10:20:02;15.06;67.16
75363;DHT22;64122;51.988;5.892;2023-11-19T10:22:36;15.01;67.21
75363;DHT22;64122;51.988;5.892;2023-11-19T10:25:21;15.01;67.57
75363;DHT22;64122;51.988;5.892;2023-11-19T10:27:53;14.99;67.16
75363;DHT22;64122;51.988;5.892;2023-11-19T10:30:24;14.95;67.25
75363;DHT22;64122;51.988;5.892;2023-11-19T10:33:05;14.97;67.37
75363;DHT22;64122;51.988;5.892;2023-11-19T10:35:36;14.98;67.16
75363;DHT22;64122;51.988;5.892;2023-11-19T10:38:14;14.96;67.20
75363;DHT22;64122;51.988;5.892;2023-11-19T10:40:43;14.93;67.04
75363;DHT22;64122;51.988;5.892;2023-11-19T10:43:15;14.97;67.11
75363;DHT22;64122;51.988;5.892;2023-11-19T10:45:44;15.04;66.78
75363;DHT22;64122;51.988;5.892;2023-11-19T10:48:13;15.17;66.56
75363;DHT22;64122;51.988;5.892;2023-11-19T10:50:44;15.29;66.24
75363;DHT22;64122;51.988;5.892;2023-11-19T10:53:13;15.41;65.70
75363;DHT22;64122;51.988;5.892;2023-11-19T10:55:47;15.51;65.30
75363;DHT22;64122;51.988;5.892;2023-11-19T10:58:19;15.60;65.25
75363;DHT22;64122;51.988;5.892;2023-11-19T11:00:52;15.82;64.69
75363;DHT22;64122;51.988;5.892;2023-11-19T11:03:21;15.73;65.53
75363;DHT22;64122;51.988;5.892;2023-11-19T11:05:52;15.73;64.39
75363;DHT22;64122;51.988;5.892;2023-11-19T11:08:21;15.67;64.53
75363;DHT22;64122;51.988;5.892;2023-11-19T11:10:53;15.67;64.64
75363;DHT22;64122;51.988;5.892;2023-11-19T11:13:26;15.77;64.42
75363;DHT22;64122;51.988;5.892;2023-11-19T11:15:57;15.92;63.47
75363;DHT22;64122;51.988;5.892;2023-11-19T11:18:27;16.13;63.44
75363;DHT22;64122;51.988;5.892;2023-11-19T11:20:59;16.18;62.52
75363;DHT22;64122;51.988;5.892;2023-11-19T11:24:01;16.13;62.49
75363;DHT22;64122;51.988;5.892;2023-11-19T11:26:59;16.15;62.55
75363;DHT22;64122;51.988;5.892;2023-11-19T11:29:39;16.16;62.30
75363;DHT22;64122;51.988;5.892;2023-11-19T11:32:14;16.08;63.26
75363;DHT22;64122;51.988;5.892;2023-11-19T11:35:08;16.03;62.89
75363;DHT22;64122;51.988;5.892;2023-11-19T11:37:44;15.85;62.92
75363;DHT22;64122;51.988;5.892;2023-11-19T11:40:15;15.84;62.92
75363;DHT22;64122;51.988;5.892;2023-11-19T11:42:44;15.78;63.14
75363;DHT22;64122;51.988;5.892;2023-11-19T11:45:16;15.76;63.47
75363;DHT22;64122;51.988;5.892;2023-11-19T11:48:14;15.77;63.84
75363;DHT22;64122;51.988;5.892;2023-11-19T11:50:53;15.77;63.85
75363;DHT22;64122;51.988;5.892;2023-11-19T11:53:23;15.82;63.72
75363;DHT22;64122;51.988;5.892;2023-11-19T11:55:57;15.81;63.42
75363;DHT22;64122;51.988;5.892;2023-11-19T11:58:32;15.85;63.02
75363;DHT22;64122;51.988;5.892;2023-11-19T12:01:06;15.76;63.18
75363;DHT22;64122;51.988;5.892;2023-11-19T12:03:37;15.62;63.68
75363;DHT22;64122;51.988;5.892;2023-11-19T12:06:07;15.47;63.75
75363;DHT22;64122;51.988;5.892;2023-11-19T12:08:38;15.46;63.99
75363;DHT22;64122;51.988;5.892;2023-11-19T12:11:08;15.67;63.53
75363;DHT22;64122;51.988;5.892;2023-11-19T12:13:53;15.90;63.29
75363;DHT22;64122;51.988;5.892;2023-11-19T12:16:27;16.07;62.90
75363;DHT22;64122;51.988;5.892;2023-11-19T12:18:56;16.05;63.53
75363;DHT22;64122;51.988;5.892;2023-11-19T12:21:31;16.04;62.60
75363;DHT22;64122;51.988;5.892;2023-11-19T12:24:04;15.99;62.32
75363;DHT22;64122;51.988;5.892;2023-11-19T12:26:36;15.99;61.96
75363;DHT22;64122;51.988;5.892;2023-11-19T12:29:06;16.04;61.72
75363;DHT22;64122;51.988;5.892;2023-11-19T12:31:38;16.13;61.55
75363;DHT22;64122;51.988;5.892;2023-11-19T12:34:12;16.26;61.47
75363;DHT22;64122;51.988;5.892;2023-11-19T12:36:42;16.39;61.25
75363;DHT22;64122;51.988;5.892;2023-11-19T12:39:11;16.33;61.29
75363;DHT22;64122;51.988;5.892;2023-11-19T12:41:52;16.33;61.61
75363;DHT22;64122;51.988;5.892;2023-11-19T12:44:22;16.29;61.12
75363;DHT22;64122;51.988;5.892;2023-11-19T12:47:05;16.26;61.45
75363;DHT22;64122;51.988;5.892;2023-11-19T12:49:37;16.25;60.86
75363;DHT22;64122;51.988;5.892;2023-11-19T12:52:11;16.27;60.43
75363;DHT22;64122;51.988;5.892;2023-11-19T12:54:41;16.32;60.49
75363;DHT22;64122;51.988;5.892;2023-11-19T12:57:10;16.37;60.60
75363;DHT22;64122;51.988;5.892;2023-11-19T12:59:39;16.41;60.35
75363;DHT22;64122;51.988;5.892;2023-11-19T13:02:11;16.29;60.00
75363;DHT22;64122;51.988;5.892;2023-11-19T13:04:41;16.19;60.49
75363;DHT22;64122;51.988;5.892;2023-11-19T13:07:10;16.24;60.51
75363;DHT22;64122;51.988;5.892;2023-11-19T13:09:39;16.29;60.25
75363;DHT22;64122;51.988;5.892;2023-11-19T13:12:15;16.28;60.55
75363;DHT22;64122;51.988;5.892;2023-11-19T13:14:42;16.21;60.47
75363;DHT22;64122;51.988;5.892;2023-11-19T13:17:16;16.16;60.77
75363;DHT22;64122;51.988;5.892;2023-11-19T13:19:47;16.16;60.99
75363;DHT22;64122;51.988;5.892;2023-11-19T13:22:17;16.15;61.24
75363;DHT22;64122;51.988;5.892;2023-11-19T13:24:46;16.11;61.38
75363;DHT22;64122;51.988;5.892;2023-11-19T13:27:15;16.00;61.76
75363;DHT22;64122;51.988;5.892;2023-11-19T13:29:44;15.90;62.09
75363;DHT22;64122;51.988;5.892;2023-11-19T13:32:16;15.91;62.30
75363;DHT22;64122;51.988;5.892;2023-11-19T13:34:45;15.90;62.26
75363;DHT22;64122;51.988;5.892;2023-11-19T13:37:15;15.83;62.28
75363;DHT22;64122;51.988;5.892;2023-11-19T13:39:44;15.75;62.53
75363;DHT22;64122;51.988;5.892;2023-11-19T13:42:13;15.67;62.86
75363;DHT22;64122;51.988;5.892;2023-11-19T13:44:42;15.59;63.16
75363;DHT22;64122;51.988;5.892;2023-11-19T13:47:11;15.53;63.40
75363;DHT22;64122;51.988;5.892;2023-11-19T13:49:44;15.52;63.52
75363;DHT22;64122;51.988;5.892;2023-11-19T13:52:13;15.51;63.59
75363;DHT22;64122;51.988;5.892;2023-11-19T13:54:43;15.52;63.66
75363;DHT22;64122;51.988;5.892;2023-11-19T13:57:12;15.49;63.81
75363;DHT22;64122;51.988;5.892;2023-11-19T13:59:41;15.46;64.14
75363;DHT22;64122;51.988;5.892;2023-11-19T14:02:11;15.42;64.57
75363;DHT22;64122;51.988;5.892;2023-11-19T14:04:43;15.36;65.14
75363;DHT22;64122;51.988;5.892;2023-11-19T14:07:12;15.36;65.42
75363;DHT22;64122;51.988;5.892;2023-11-19T14:09:42;15.33;65.72
75363;DHT22;64122;51.988;5.892;2023-11-19T14:12:11;15.31;65.90
75363;DHT22;64122;51.988;5.892;2023-11-19T14:14:41;15.24;66.21
75363;DHT22;64122;51.988;5.892;2023-11-19T14:17:11;15.17;66.57
75363;DHT22;64122;51.988;5.892;2023-11-19T14:19:44;15.10;66.72
75363;DHT22;64122;51.988;5.892;2023-11-19T14:22:13;15.06;66.99
75363;DHT22;64122;51.988;5.892;2023-11-19T14:24:42;15.07;67.10
75363;DHT22;64122;51.988;5.892;2023-11-19T14:27:12;15.04;67.25
75363;DHT22;64122;51.988;5.892;2023-11-19T14:29:43;15.00;67.33
75363;DHT22;64122;51.988;5.892;2023-11-19T14:32:10;14.98;67.49
75363;DHT22;64122;51.988;5.892;2023-11-19T14:34:40;14.96;67.47
75363;DHT22;64122;51.988;5.892;2023-11-19T14:37:12;14.91;67.59
75363;DHT22;64122;51.988;5.892;2023-11-19T14:39:42;14.87;67.64
75363;DHT22;64122;51.988;5.892;2023-11-19T14:42:12;14.81;67.81
75363;DHT22;64122;51.988;5.892;2023-11-19T14:44:41;14.73;68.02
75363;DHT22;64122;51.988;5.892;2023-11-19T14:47:10;14.64;68.20
75363;DHT22;64122;51.988;5.892;2023-11-19T14:49:40;14.53;68.47
75363;DHT22;64122;51.988;5.892;2023-11-19T14:52:11;14.42;68.81
75363;DHT22;64122;51.988;5.892;2023-11-19T14:54:41;14.35;68.93
75363;DHT22;64122;51.988;5.892;2023-11-19T14:57:10;14.29;69.15
75363;DHT22;64122;51.988;5.892;2023-11-19T14:59:40;14.25;69.31
75363;DHT22;64122;51.988;5.892;2023-11-19T15:02:09;14.23;69.41
75363;DHT22;64122;51.988;5.892;2023-11-19T15:04:38;14.26;69.38
75363;DHT22;64122;51.988;5.892;2023-11-19T15:07:13;14.25;69.35
75363;DHT22;64122;51.988;5.892;2023-11-19T15:09:42;14.23;69.39
75363;DHT22;64122;51.988;5.892;2023-11-19T15:12:11;14.18;69.49
75363;DHT22;64122;51.988;5.892;2023-11-19T15:14:41;14.13;69.50
75363;DHT22;64122;51.988;5.892;2023-11-19T15:17:11;14.05;69.58
75363;DHT22;64122;51.988;5.892;2023-11-19T15:19:40;13.96;69.73
75363;DHT22;64122;51.988;5.892;2023-11-19T15:22:14;13.86;69.84
75363;DHT22;64122;51.988;5.892;2023-11-19T15:24:43;13.81;70.03
75363;DHT22;64122;51.988;5.892;2023-11-19T15:27:13;13.79;70.12
75363;DHT22;64122;51.988;5.892;2023-11-19T15:29:42;13.82;70.04
75363;DHT22;64122;51.988;5.892;2023-11-19T15:32:12;13.85;69.93
75363;DHT22;64122;51.988;5.892;2023-11-19T15:34:41;13.92;69.81
75363;DHT22;64122;51.988;5.892;2023-11-19T15:37:10;13.93;69.64
75363;DHT22;64122;51.988;5.892;2023-11-19T15:39:43;13.95;69.58
75363;DHT22;64122;51.988;5.892;2023-11-19T15:42:13;13.85;69.85
75363;DHT22;64122;51.988;5.892;2023-11-19T15:44:42;13.98;69.51
75363;DHT22;64122;51.988;5.892;2023-11-19T15:47:13;14.00;69.31
75363;DHT22;64122;51.988;5.892;2023-11-19T15:49:42;14.04;69.27
75363;DHT22;64122;51.988;5.892;2023-11-19T15:52:11;14.08;69.27